sensor_id;sensor_type;location;lat;lon;timestamp;P1;durP1;ratioP1;P2;durP2;ratioP2
253;SDS011;590;48.772;8.846;2024-03-25T00:01:30;2.63;;;2.38;;
253;SDS011;590;48.772;8.846;2024-03-25T00:03:57;2.95;;;2.75;;
253;SDS011;590;48.772;8.846;2024-03-25T00:06:24;2.38;;;2.17;;
253;SDS011;590;48.772;8.846;2024-03-25T00:08:51;2.70;;;2.50;;
253;SDS011;590;48.772;8.846;2024-03-25T00:11:17;3.30;;;3.10;;
253;SDS011;590;48.772;8.846;2024-03-25T00:13:46;2.80;;;2.60;;
253;SDS011;590;48.772;8.846;2024-03-25T00:16:12;2.63;;;2.40;;
253;SDS011;590;48.772;8.846;2024-03-25T00:18:40;2.90;;;2.50;;
253;SDS011;590;48.772;8.846;2024-03-25T00:21:06;2.55;;;2.35;;
253;SDS011;590;48.772;8.846;2024-03-25T00:23:33;3.35;;;3.15;;
253;SDS011;590;48.772;8.846;2024-03-25T00:25:59;3.13;;;2.92;;
253;SDS011;590;48.772;8.846;2024-03-25T00:28:27;8.07;;;3.70;;
253;SDS011;590;48.772;8.846;2024-03-25T00:30:54;3.25;;;2.80;;
253;SDS011;590;48.772;8.846;2024-03-25T00:33:21;2.30;;;2.10;;
253;SDS011;590;48.772;8.846;2024-03-25T00:35:48;3.17;;;2.60;;
253;SDS011;590;48.772;8.846;2024-03-25T00:38:15;3.03;;;2.83;;
253;SDS011;590;48.772;8.846;2024-03-25T00:40:41;3.13;;;2.30;;
253;SDS011;590;48.772;8.846;2024-03-25T00:43:08;6.05;;;3.42;;
253;SDS011;590;48.772;8.846;2024-03-25T00:45:34;2.65;;;2.45;;
253;SDS011;590;48.772;8.846;2024-03-25T00:48:04;2.50;;;2.30;;
253;SDS011;590;48.772;8.846;2024-03-25T00:50:30;2.80;;;2.60;;
253;SDS011;590;48.772;8.846;2024-03-25T00:52:57;4.82;;;2.90;;
253;SDS011;590;48.772;8.846;2024-03-25T00:55:23;4.32;;;3.30;;
253;SDS011;590;48.772;8.846;2024-03-25T00:57:51;3.45;;;3.25;;
253;SDS011;590;48.772;8.846;2024-03-25T01:00:17;3.20;;;2.35;;
253;SDS011;590;48.772;8.846;2024-03-25T01:02:45;3.10;;;2.90;;
253;SDS011;590;48.772;8.846;2024-03-25T01:05:12;3.40;;;3.20;;
253;SDS011;590;48.772;8.846;2024-03-25T01:07:39;2.70;;;2.35;;
253;SDS011;590;48.772;8.846;2024-03-25T01:10:06;3.65;;;3.45;;
253;SDS011;590;48.772;8.846;2024-03-25T01:12:33;3.28;;;3.08;;
253;SDS011;590;48.772;8.846;2024-03-25T01:14:59;3.80;;;2.88;;
253;SDS011;590;48.772;8.846;2024-03-25T01:17:27;2.70;;;2.53;;
253;SDS011;590;48.772;8.846;2024-03-25T01:19:53;5.50;;;3.25;;
253;SDS011;590;48.772;8.846;2024-03-25T01:22:22;3.00;;;2.80;;
253;SDS011;590;48.772;8.846;2024-03-25T01:24:48;4.40;;;3.03;;
253;SDS011;590;48.772;8.846;2024-03-25T01:27:15;3.30;;;3.10;;
253;SDS011;590;48.772;8.846;2024-03-25T01:29:41;2.92;;;2.72;;
253;SDS011;590;48.772;8.846;2024-03-25T01:32:08;2.80;;;2.60;;
253;SDS011;590;48.772;8.846;2024-03-25T01:34:37;3.10;;;2.90;;
253;SDS011;590;48.772;8.846;2024-03-25T01:37:04;3.00;;;2.80;;
253;SDS011;590;48.772;8.846;2024-03-25T01:39:31;2.95;;;2.75;;
253;SDS011;590;48.772;8.846;2024-03-25T01:41:58;3.22;;;2.70;;
253;SDS011;590;48.772;8.846;2024-03-25T01:44:24;2.92;;;2.72;;
253;SDS011;590;48.772;8.846;2024-03-25T01:46:52;4.38;;;3.17;;
253;SDS011;590;48.772;8.846;2024-03-25T01:49:18;3.03;;;2.83;;
253;SDS011;590;48.772;8.846;2024-03-25T01:51:46;2.92;;;2.72;;
253;SDS011;590;48.772;8.846;2024-03-25T01:54:12;4.32;;;3.10;;
253;SDS011;590;48.772;8.846;2024-03-25T01:56:43;6.53;;;3.40;;
253;SDS011;590;48.772;8.846;2024-03-25T01:59:12;4.20;;;3.20;;
253;SDS011;590;48.772;8.846;2024-03-25T02:01:42;3.53;;;3.25;;
253;SDS011;590;48.772;8.846;2024-03-25T02:04:09;3.22;;;3.03;;
253;SDS011;590;48.772;8.846;2024-03-25T02:06:37;3.53;;;3.30;;
253;SDS011;590;48.772;8.846;2024-03-25T02:09:05;3.20;;;2.72;;
253;SDS011;590;48.772;8.846;2024-03-25T02:11:32;3.35;;;3.15;;
253;SDS011;590;48.772;8.846;2024-03-25T02:14:00;4.10;;;3.53;;
253;SDS011;590;48.772;8.846;2024-03-25T02:16:28;4.55;;;3.08;;
253;SDS011;590;48.772;8.846;2024-03-25T02:18:54;3.30;;;3.10;;
253;SDS011;590;48.772;8.846;2024-03-25T02:21:21;3.40;;;3.20;;
253;SDS011;590;48.772;8.846;2024-03-25T02:23:47;3.88;;;3.33;;
253;SDS011;590;48.772;8.846;2024-03-25T02:26:19;3.38;;;3.00;;
253;SDS011;590;48.772;8.846;2024-03-25T02:28:45;3.13;;;2.95;;
253;SDS011;590;48.772;8.846;2024-03-25T02:31:12;4.15;;;3.35;;
253;SDS011;590;48.772;8.846;2024-03-25T02:33:38;3.30;;;3.10;;
253;SDS011;590;48.772;8.846;2024-03-25T02:36:07;3.55;;;3.35;;
253;SDS011;590;48.772;8.846;2024-03-25T02:38:33;3.00;;;2.80;;
253;SDS011;590;48.772;8.846;2024-03-25T02:41:01;4.85;;;3.60;;
253;SDS011;590;48.772;8.846;2024-03-25T02:43:29;3.35;;;3.15;;
253;SDS011;590;48.772;8.846;2024-03-25T02:45:57;3.72;;;2.58;;
253;SDS011;590;48.772;8.846;2024-03-25T02:48:23;3.95;;;3.70;;
253;SDS011;590;48.772;8.846;2024-03-25T02:50:50;2.67;;;2.47;;
253;SDS011;590;48.772;8.846;2024-03-25T02:53:16;3.17;;;2.97;;
253;SDS011;590;48.772;8.846;2024-03-25T02:55:43;3.53;;;3.33;;
253;SDS011;590;48.772;8.846;2024-03-25T02:58:09;4.50;;;3.30;;
253;SDS011;590;48.772;8.846;2024-03-25T03:00:38;3.80;;;3.30;;
253;SDS011;590;48.772;8.846;2024-03-25T03:03:04;3.25;;;3.05;;
253;SDS011;590;48.772;8.846;2024-03-25T03:05:31;3.33;;;2.95;;
253;SDS011;590;48.772;8.846;2024-03-25T03:07:58;4.15;;;3.92;;
253;SDS011;590;48.772;8.846;2024-03-25T03:10:25;3.10;;;2.90;;
253;SDS011;590;48.772;8.846;2024-03-25T03:12:51;3.03;;;2.83;;
253;SDS011;590;48.772;8.846;2024-03-25T03:15:18;3.05;;;2.85;;
253;SDS011;590;48.772;8.846;2024-03-25T03:17:45;3.05;;;2.85;;
253;SDS011;590;48.772;8.846;2024-03-25T03:20:12;3.03;;;2.58;;
253;SDS011;590;48.772;8.846;2024-03-25T03:22:39;3.97;;;3.53;;
253;SDS011;590;48.772;8.846;2024-03-25T03:25:06;3.38;;;3.17;;
253;SDS011;590;48.772;8.846;2024-03-25T03:27:32;3.20;;;3.00;;
253;SDS011;590;48.772;8.846;2024-03-25T03:29:59;4.05;;;3.83;;
253;SDS011;590;48.772;8.846;2024-03-25T03:32:25;3.88;;;3.72;;
253;SDS011;590;48.772;8.846;2024-03-25T03:34:54;3.40;;;3.20;;
253;SDS011;590;48.772;8.846;2024-03-25T03:37:20;5.65;;;3.40;;
253;SDS011;590;48.772;8.846;2024-03-25T03:39:47;4.47;;;3.35;;
253;SDS011;590;48.772;8.846;2024-03-25T03:42:13;4.10;;;2.97;;
253;SDS011;590;48.772;8.846;2024-03-25T03:44:40;3.80;;;3.05;;
253;SDS011;590;48.772;8.846;2024-03-25T03:47:06;3.45;;;3.30;;
253;SDS011;590;48.772;8.846;2024-03-25T03:49:33;3.17;;;2.75;;
253;SDS011;590;48.772;8.846;2024-03-25T03:52:01;3.08;;;2.88;;
253;SDS011;590;48.772;8.846;2024-03-25T03:54:28;4.40;;;3.30;;
253;SDS011;590;48.772;8.846;2024-03-25T03:56:54;3.50;;;3.30;;
253;SDS011;590;48.772;8.846;2024-03-25T03:59:21;3.63;;;3.42;;
253;SDS011;590;48.772;8.846;2024-03-25T04:01:47;3.17;;;2.97;;
253;SDS011;590;48.772;8.846;2024-03-25T04:04:15;3.13;;;2.92;;
253;SDS011;590;48.772;8.846;2024-03-25T04:06:41;3.30;;;3.10;;
253;SDS011;590;48.772;8.846;2024-03-25T04:09:09;3.22;;;3.03;;
253;SDS011;590;48.772;8.846;2024-03-25T04:11:35;4.30;;;2.97;;
253;SDS011;590;48.772;8.846;2024-03-25T04:14:03;5.60;;;3.90;;
253;SDS011;590;48.772;8.846;2024-03-25T04:16:29;3.08;;;2.88;;
253;SDS011;590;48.772;8.846;2024-03-25T04:18:57;3.50;;;3.30;;
253;SDS011;590;48.772;8.846;2024-03-25T04:21:23;3.20;;;3.00;;
253;SDS011;590;48.772;8.846;2024-03-25T04:23:50;3.25;;;3.05;;
253;SDS011;590;48.772;8.846;2024-03-25T04:26:18;5.05;;;3.00;;
253;SDS011;590;48.772;8.846;2024-03-25T04:28:45;3.40;;;3.10;;
253;SDS011;590;48.772;8.846;2024-03-25T04:31:12;3.40;;;3.20;;
253;SDS011;590;48.772;8.846;2024-03-25T04:33:38;3.70;;;3.50;;
253;SDS011;590;48.772;8.846;2024-03-25T04:36:06;3.67;;;3.50;;
253;SDS011;590;48.772;8.846;2024-03-25T04:38:32;4.82;;;3.60;;
253;SDS011;590;48.772;8.846;2024-03-25T04:40:58;4.25;;;3.97;;
253;SDS011;590;48.772;8.846;2024-03-25T04:43:26;4.45;;;3.80;;
253;SDS011;590;48.772;8.846;2024-03-25T04:45:52;5.35;;;5.05;;
253;SDS011;590;48.772;8.846;2024-03-25T04:48:18;6.50;;;6.10;;
253;SDS011;590;48.772;8.846;2024-03-25T04:50:44;5.72;;;5.43;;
253;SDS011;590;48.772;8.846;2024-03-25T04:53:10;3.95;;;3.67;;
253;SDS011;590;48.772;8.846;2024-03-25T04:55:36;4.40;;;4.10;;
253;SDS011;590;48.772;8.846;2024-03-25T04:58:03;4.07;;;3.88;;
253;SDS011;590;48.772;8.846;2024-03-25T05:00:30;4.57;;;3.70;;
253;SDS011;590;48.772;8.846;2024-03-25T05:02:56;3.40;;;3.20;;
253;SDS011;590;48.772;8.846;2024-03-25T05:05:23;4.13;;;3.90;;
253;SDS011;590;48.772;8.846;2024-03-25T05:07:49;5.05;;;3.20;;
253;SDS011;590;48.772;8.846;2024-03-25T05:10:15;3.40;;;3.10;;
253;SDS011;590;48.772;8.846;2024-03-25T05:12:41;5.45;;;5.15;;
253;SDS011;590;48.772;8.846;2024-03-25T05:15:07;4.95;;;4.65;;
253;SDS011;590;48.772;8.846;2024-03-25T05:17:35;4.22;;;3.95;;
253;SDS011;590;48.772;8.846;2024-03-25T05:20:02;3.92;;;3.72;;
253;SDS011;590;48.772;8.846;2024-03-25T05:22:29;8.18;;;7.78;;
253;SDS011;590;48.772;8.846;2024-03-25T05:24:55;12.32;;;11.73;;
253;SDS011;590;48.772;8.846;2024-03-25T05:27:21;9.90;;;9.40;;
253;SDS011;590;48.772;8.846;2024-03-25T05:29:48;6.32;;;5.97;;
253;SDS011;590;48.772;8.846;2024-03-25T05:32:14;7.55;;;7.15;;
253;SDS011;590;48.772;8.846;2024-03-25T05:34:42;4.47;;;4.18;;
253;SDS011;590;48.772;8.846;2024-03-25T05:37:09;6.57;;;6.15;;
253;SDS011;590;48.772;8.846;2024-03-25T05:39:35;4.50;;;4.20;;
253;SDS011;590;48.772;8.846;2024-03-25T05:42:02;3.80;;;3.60;;
253;SDS011;590;48.772;8.846;2024-03-25T05:44:28;4.72;;;3.85;;
253;SDS011;590;48.772;8.846;2024-03-25T05:46:54;4.70;;;4.25;;
253;SDS011;590;48.772;8.846;2024-03-25T05:49:20;5.15;;;4.32;;
253;SDS011;590;48.772;8.846;2024-03-25T05:51:48;3.45;;;3.25;;
253;SDS011;590;48.772;8.846;2024-03-25T05:54:14;5.78;;;3.55;;
253;SDS011;590;48.772;8.846;2024-03-25T05:56:40;4.35;;;4.05;;
253;SDS011;590;48.772;8.846;2024-03-25T05:59:06;6.63;;;5.03;;
253;SDS011;590;48.772;8.846;2024-03-25T06:01:33;5.03;;;4.18;;
253;SDS011;590;48.772;8.846;2024-03-25T06:03:59;4.65;;;4.35;;
253;SDS011;590;48.772;8.846;2024-03-25T06:06:25;4.60;;;4.30;;
253;SDS011;590;48.772;8.846;2024-03-25T06:08:52;6.00;;;5.70;;
253;SDS011;590;48.772;8.846;2024-03-25T06:11:19;4.90;;;4.57;;
253;SDS011;590;48.772;8.846;2024-03-25T06:13:45;4.65;;;4.35;;
253;SDS011;590;48.772;8.846;2024-03-25T06:16:11;4.97;;;4.68;;
253;SDS011;590;48.772;8.846;2024-03-25T06:18:38;5.30;;;4.75;;
253;SDS011;590;48.772;8.846;2024-03-25T06:21:04;6.20;;;5.60;;
253;SDS011;590;48.772;8.846;2024-03-25T06:23:30;4.75;;;4.45;;
253;SDS011;590;48.772;8.846;2024-03-25T06:25:58;5.03;;;3.63;;
253;SDS011;590;48.772;8.846;2024-03-25T06:28:24;3.53;;;3.35;;
253;SDS011;590;48.772;8.846;2024-03-25T06:30:50;3.83;;;3.63;;
253;SDS011;590;48.772;8.846;2024-03-25T06:33:35;4.03;;;3.70;;
253;SDS011;590;48.772;8.846;2024-03-25T06:36:21;4.13;;;3.70;;
253;SDS011;590;48.772;8.846;2024-03-25T06:38:47;4.15;;;3.40;;
253;SDS011;590;48.772;8.846;2024-03-25T06:41:15;3.60;;;3.40;;
253;SDS011;590;48.772;8.846;2024-03-25T06:43:42;3.50;;;3.30;;
253;SDS011;590;48.772;8.846;2024-03-25T06:46:08;3.27;;;2.97;;
253;SDS011;590;48.772;8.846;2024-03-25T06:48:34;6.60;;;3.80;;
253;SDS011;590;48.772;8.846;2024-03-25T06:51:01;3.23;;;3.03;;
253;SDS011;590;48.772;8.846;2024-03-25T06:53:27;4.17;;;3.73;;
253;SDS011;590;48.772;8.846;2024-03-25T06:55:54;2.90;;;2.60;;
253;SDS011;590;48.772;8.846;2024-03-25T06:58:22;4.70;;;4.03;;
253;SDS011;590;48.772;8.846;2024-03-25T07:00:49;3.73;;;3.40;;
253;SDS011;590;48.772;8.846;2024-03-25T07:03:17;3.33;;;3.13;;
253;SDS011;590;48.772;8.846;2024-03-25T07:05:46;3.37;;;2.90;;
253;SDS011;590;48.772;8.846;2024-03-25T07:08:14;3.40;;;3.20;;
253;SDS011;590;48.772;8.846;2024-03-25T07:10:41;3.53;;;3.33;;
253;SDS011;590;48.772;8.846;2024-03-25T07:13:07;2.77;;;2.57;;
253;SDS011;590;48.772;8.846;2024-03-25T07:15:35;3.03;;;2.90;;
253;SDS011;590;48.772;8.846;2024-03-25T07:18:04;2.80;;;2.60;;
253;SDS011;590;48.772;8.846;2024-03-25T07:20:31;2.77;;;2.57;;
253;SDS011;590;48.772;8.846;2024-03-25T07:22:57;4.53;;;2.90;;
253;SDS011;590;48.772;8.846;2024-03-25T07:25:24;3.27;;;2.83;;
253;SDS011;590;48.772;8.846;2024-03-25T07:27:51;3.10;;;2.60;;
253;SDS011;590;48.772;8.846;2024-03-25T07:30:18;2.80;;;2.60;;
253;SDS011;590;48.772;8.846;2024-03-25T07:32:45;2.73;;;2.53;;
253;SDS011;590;48.772;8.846;2024-03-25T07:35:12;2.50;;;2.30;;
253;SDS011;590;48.772;8.846;2024-03-25T07:37:38;2.97;;;2.80;;
253;SDS011;590;48.772;8.846;2024-03-25T07:40:04;3.33;;;3.13;;
253;SDS011;590;48.772;8.846;2024-03-25T07:42:31;3.20;;;3.00;;
253;SDS011;590;48.772;8.846;2024-03-25T07:45:09;2.33;;;2.13;;
253;SDS011;590;48.772;8.846;2024-03-25T07:47:36;3.00;;;2.40;;
253;SDS011;590;48.772;8.846;2024-03-25T07:50:04;2.67;;;2.50;;
253;SDS011;590;48.772;8.846;2024-03-25T07:52:30;1.80;;;1.73;;
253;SDS011;590;48.772;8.846;2024-03-25T07:54:57;2.37;;;2.17;;
253;SDS011;590;48.772;8.846;2024-03-25T07:57:23;2.37;;;2.17;;
253;SDS011;590;48.772;8.846;2024-03-25T07:59:49;4.63;;;3.43;;
253;SDS011;590;48.772;8.846;2024-03-25T08:02:15;3.10;;;2.70;;
253;SDS011;590;48.772;8.846;2024-03-25T08:04:41;2.93;;;2.17;;
253;SDS011;590;48.772;8.846;2024-03-25T08:07:09;3.70;;;2.40;;
253;SDS011;590;48.772;8.846;2024-03-25T08:09:35;2.57;;;2.37;;
253;SDS011;590;48.772;8.846;2024-03-25T08:12:01;2.80;;;2.10;;
253;SDS011;590;48.772;8.846;2024-03-25T08:14:28;3.00;;;2.80;;
253;SDS011;590;48.772;8.846;2024-03-25T08:16:54;2.77;;;1.97;;
253;SDS011;590;48.772;8.846;2024-03-25T08:19:20;2.30;;;2.10;;
253;SDS011;590;48.772;8.846;2024-03-25T08:21:46;2.30;;;2.10;;
253;SDS011;590;48.772;8.846;2024-03-25T08:24:14;2.37;;;2.17;;
253;SDS011;590;48.772;8.846;2024-03-25T08:26:41;1.93;;;1.83;;
253;SDS011;590;48.772;8.846;2024-03-25T08:29:07;1.67;;;1.50;;
253;SDS011;590;48.772;8.846;2024-03-25T08:31:33;2.20;;;1.50;;
253;SDS011;590;48.772;8.846;2024-03-25T08:33:59;2.03;;;1.60;;
253;SDS011;590;48.772;8.846;2024-03-25T08:36:25;1.47;;;1.37;;
253;SDS011;590;48.772;8.846;2024-03-25T08:38:52;1.87;;;1.70;;
253;SDS011;590;48.772;8.846;2024-03-25T08:41:19;2.03;;;1.40;;
253;SDS011;590;48.772;8.846;2024-03-25T08:43:45;1.33;;;1.23;;
253;SDS011;590;48.772;8.846;2024-03-25T08:46:11;1.73;;;1.40;;
253;SDS011;590;48.772;8.846;2024-03-25T08:48:37;2.27;;;1.80;;
253;SDS011;590;48.772;8.846;2024-03-25T08:51:04;1.70;;;1.30;;
253;SDS011;590;48.772;8.846;2024-03-25T08:53:30;1.33;;;1.33;;
253;SDS011;590;48.772;8.846;2024-03-25T08:55:56;1.80;;;1.60;;
253;SDS011;590;48.772;8.846;2024-03-25T08:58:23;1.03;;;0.90;;
253;SDS011;590;48.772;8.846;2024-03-25T09:00:49;1.27;;;1.17;;
253;SDS011;590;48.772;8.846;2024-03-25T09:03:16;2.23;;;1.10;;
253;SDS011;590;48.772;8.846;2024-03-25T09:05:42;1.43;;;1.30;;
253;SDS011;590;48.772;8.846;2024-03-25T09:08:08;1.13;;;1.00;;
253;SDS011;590;48.772;8.846;2024-03-25T09:10:35;1.20;;;1.10;;
253;SDS011;590;48.772;8.846;2024-03-25T09:13:19;2.70;;;1.40;;
253;SDS011;590;48.772;8.846;2024-03-25T09:15:47;1.57;;;1.40;;
253;SDS011;590;48.772;8.846;2024-03-25T09:18:13;1.83;;;1.30;;
253;SDS011;590;48.772;8.846;2024-03-25T09:20:39;2.43;;;1.50;;
253;SDS011;590;48.772;8.846;2024-03-25T09:23:05;1.57;;;1.20;;
253;SDS011;590;48.772;8.846;2024-03-25T09:25:31;1.70;;;1.60;;
253;SDS011;590;48.772;8.846;2024-03-25T09:27:57;2.90;;;1.43;;
253;SDS011;590;48.772;8.846;2024-03-25T09:30:24;5.17;;;1.90;;
253;SDS011;590;48.772;8.846;2024-03-25T09:32:51;1.93;;;1.03;;
253;SDS011;590;48.772;8.846;2024-03-25T09:35:17;1.50;;;1.40;;
253;SDS011;590;48.772;8.846;2024-03-25T09:37:43;2.63;;;1.20;;
253;SDS011;590;48.772;8.846;2024-03-25T09:40:10;1.13;;;1.10;;
253;SDS011;590;48.772;8.846;2024-03-25T09:42:40;1.93;;;1.83;;
253;SDS011;590;48.772;8.846;2024-03-25T09:45:13;1.50;;;1.40;;
253;SDS011;590;48.772;8.846;2024-03-25T09:47:42;1.50;;;1.40;;
253;SDS011;590;48.772;8.846;2024-03-25T09:50:12;1.93;;;1.40;;
253;SDS011;590;48.772;8.846;2024-03-25T09:52:39;1.90;;;1.20;;
253;SDS011;590;48.772;8.846;2024-03-25T09:55:05;1.40;;;1.33;;
253;SDS011;590;48.772;8.846;2024-03-25T09:57:33;2.77;;;1.40;;
253;SDS011;590;48.772;8.846;2024-03-25T10:00:00;2.97;;;1.40;;
253;SDS011;590;48.772;8.846;2024-03-25T10:02:26;1.63;;;1.53;;
253;SDS011;590;48.772;8.846;2024-03-25T10:04:54;1.60;;;1.50;;
253;SDS011;590;48.772;8.846;2024-03-25T10:07:23;1.30;;;1.23;;
253;SDS011;590;48.772;8.846;2024-03-25T10:09:49;1.90;;;1.80;;
253;SDS011;590;48.772;8.846;2024-03-25T10:12:16;1.70;;;1.63;;
253;SDS011;590;48.772;8.846;2024-03-25T10:14:43;1.73;;;1.40;;
253;SDS011;590;48.772;8.846;2024-03-25T10:17:09;1.93;;;1.60;;
253;SDS011;590;48.772;8.846;2024-03-25T10:19:35;2.20;;;1.60;;
253;SDS011;590;48.772;8.846;2024-03-25T10:22:02;1.57;;;1.50;;
253;SDS011;590;48.772;8.846;2024-03-25T10:24:37;1.70;;;1.43;;
253;SDS011;590;48.772;8.846;2024-03-25T10:27:09;1.63;;;1.30;;
253;SDS011;590;48.772;8.846;2024-03-25T10:29:37;1.80;;;1.70;;
253;SDS011;590;48.772;8.846;2024-03-25T10:32:03;2.50;;;1.30;;
253;SDS011;590;48.772;8.846;2024-03-25T10:34:30;1.77;;;1.30;;
253;SDS011;590;48.772;8.846;2024-03-25T10:36:57;1.77;;;1.67;;
253;SDS011;590;48.772;8.846;2024-03-25T10:39:27;2.07;;;1.43;;
253;SDS011;590;48.772;8.846;2024-03-25T10:41:57;2.30;;;1.70;;
253;SDS011;590;48.772;8.846;2024-03-25T10:44:25;3.30;;;2.10;;
253;SDS011;590;48.772;8.846;2024-03-25T10:46:54;1.80;;;1.70;;
253;SDS011;590;48.772;8.846;2024-03-25T10:49:27;2.10;;;1.50;;
253;SDS011;590;48.772;8.846;2024-03-25T10:52:00;2.10;;;1.40;;
253;SDS011;590;48.772;8.846;2024-03-25T10:54:29;2.83;;;1.80;;
253;SDS011;590;48.772;8.846;2024-03-25T10:56:59;2.70;;;2.30;;
253;SDS011;590;48.772;8.846;2024-03-25T10:59:26;1.77;;;1.60;;
253;SDS011;590;48.772;8.846;2024-03-25T11:01:53;1.70;;;1.60;;
253;SDS011;590;48.772;8.846;2024-03-25T11:04:20;1.57;;;1.50;;
253;SDS011;590;48.772;8.846;2024-03-25T11:06:46;2.00;;;1.77;;
253;SDS011;590;48.772;8.846;2024-03-25T11:09:21;2.10;;;1.30;;
253;SDS011;590;48.772;8.846;2024-03-25T11:11:50;1.90;;;1.60;;
253;SDS011;590;48.772;8.846;2024-03-25T11:14:17;2.00;;;1.80;;
253;SDS011;590;48.772;8.846;2024-03-25T11:16:48;2.40;;;2.07;;
253;SDS011;590;48.772;8.846;2024-03-25T11:19:17;1.80;;;1.73;;
253;SDS011;590;48.772;8.846;2024-03-25T11:21:44;1.80;;;1.70;;
253;SDS011;590;48.772;8.846;2024-03-25T11:24:10;2.17;;;1.77;;
253;SDS011;590;48.772;8.846;2024-03-25T11:26:40;3.53;;;1.70;;
253;SDS011;590;48.772;8.846;2024-03-25T11:29:07;2.27;;;1.90;;
253;SDS011;590;48.772;8.846;2024-03-25T11:31:35;1.77;;;1.67;;
253;SDS011;590;48.772;8.846;2024-03-25T11:34:04;1.80;;;1.70;;
253;SDS011;590;48.772;8.846;2024-03-25T11:36:31;2.00;;;1.83;;
253;SDS011;590;48.772;8.846;2024-03-25T11:38:58;2.33;;;1.80;;
253;SDS011;590;48.772;8.846;2024-03-25T11:41:24;1.87;;;1.77;;
253;SDS011;590;48.772;8.846;2024-03-25T11:43:51;2.63;;;2.47;;
253;SDS011;590;48.772;8.846;2024-03-25T11:46:17;1.90;;;1.73;;
253;SDS011;590;48.772;8.846;2024-03-25T11:48:46;2.57;;;2.03;;
253;SDS011;590;48.772;8.846;2024-03-25T11:51:12;2.40;;;2.03;;
253;SDS011;590;48.772;8.846;2024-03-25T11:53:38;1.60;;;1.60;;
253;SDS011;590;48.772;8.846;2024-03-25T11:56:05;2.93;;;1.70;;
253;SDS011;590;48.772;8.846;2024-03-25T11:58:31;1.83;;;1.77;;
253;SDS011;590;48.772;8.846;2024-03-25T12:00:57;1.53;;;1.50;;
253;SDS011;590;48.772;8.846;2024-03-25T12:03:24;2.33;;;2.13;;
253;SDS011;590;48.772;8.846;2024-03-25T12:05:51;1.47;;;1.47;;
253;SDS011;590;48.772;8.846;2024-03-25T12:08:17;1.87;;;1.80;;
253;SDS011;590;48.772;8.846;2024-03-25T12:10:43;2.70;;;1.83;;
253;SDS011;590;48.772;8.846;2024-03-25T12:13:28;1.93;;;1.87;;
253;SDS011;590;48.772;8.846;2024-03-25T12:15:54;1.83;;;1.70;;
253;SDS011;590;48.772;8.846;2024-03-25T12:18:21;1.70;;;1.60;;
253;SDS011;590;48.772;8.846;2024-03-25T12:20:47;2.80;;;1.83;;
253;SDS011;590;48.772;8.846;2024-03-25T12:23:15;2.47;;;2.30;;
253;SDS011;590;48.772;8.846;2024-03-25T12:25:47;2.10;;;1.97;;
253;SDS011;590;48.772;8.846;2024-03-25T12:28:14;2.93;;;2.33;;
253;SDS011;590;48.772;8.846;2024-03-25T12:30:48;2.33;;;2.13;;
253;SDS011;590;48.772;8.846;2024-03-25T12:33:16;2.43;;;2.23;;
253;SDS011;590;48.772;8.846;2024-03-25T12:35:44;2.50;;;2.00;;
253;SDS011;590;48.772;8.846;2024-03-25T12:38:22;3.10;;;2.30;;
253;SDS011;590;48.772;8.846;2024-03-25T12:40:49;2.60;;;2.40;;
253;SDS011;590;48.772;8.846;2024-03-25T12:43:16;3.53;;;2.27;;
253;SDS011;590;48.772;8.846;2024-03-25T12:45:42;2.07;;;1.93;;
253;SDS011;590;48.772;8.846;2024-03-25T12:48:09;2.80;;;2.07;;
253;SDS011;590;48.772;8.846;2024-03-25T12:50:35;3.43;;;2.40;;
253;SDS011;590;48.772;8.846;2024-03-25T12:53:01;2.30;;;2.10;;
253;SDS011;590;48.772;8.846;2024-03-25T12:55:29;2.30;;;2.00;;
253;SDS011;590;48.772;8.846;2024-03-25T12:57:55;1.83;;;1.73;;
253;SDS011;590;48.772;8.846;2024-03-25T13:00:22;2.47;;;1.70;;
253;SDS011;590;48.772;8.846;2024-03-25T13:02:48;2.87;;;2.20;;
253;SDS011;590;48.772;8.846;2024-03-25T13:05:14;2.20;;;1.87;;
253;SDS011;590;48.772;8.846;2024-03-25T13:07:40;2.03;;;1.90;;
253;SDS011;590;48.772;8.846;2024-03-25T13:10:07;2.20;;;2.00;;
253;SDS011;590;48.772;8.846;2024-03-25T13:12:34;2.27;;;2.07;;
253;SDS011;590;48.772;8.846;2024-03-25T13:15:00;2.07;;;1.93;;
253;SDS011;590;48.772;8.846;2024-03-25T13:17:27;3.20;;;2.37;;
253;SDS011;590;48.772;8.846;2024-03-25T13:19:53;2.23;;;2.03;;
253;SDS011;590;48.772;8.846;2024-03-25T13:22:19;2.43;;;2.23;;
253;SDS011;590;48.772;8.846;2024-03-25T13:24:45;1.77;;;1.67;;
253;SDS011;590;48.772;8.846;2024-03-25T13:27:11;2.47;;;2.23;;
253;SDS011;590;48.772;8.846;2024-03-25T13:29:39;4.77;;;2.37;;
253;SDS011;590;48.772;8.846;2024-03-25T13:32:05;2.63;;;2.00;;
253;SDS011;590;48.772;8.846;2024-03-25T13:34:31;2.07;;;1.97;;
253;SDS011;590;48.772;8.846;2024-03-25T13:36:57;2.00;;;1.77;;
253;SDS011;590;48.772;8.846;2024-03-25T13:39:23;2.53;;;2.40;;
253;SDS011;590;48.772;8.846;2024-03-25T13:41:50;1.90;;;1.60;;
253;SDS011;590;48.772;8.846;2024-03-25T13:44:16;2.30;;;2.10;;
253;SDS011;590;48.772;8.846;2024-03-25T13:46:43;4.40;;;2.70;;
253;SDS011;590;48.772;8.846;2024-03-25T13:49:10;3.00;;;2.80;;
253;SDS011;590;48.772;8.846;2024-03-25T13:51:36;2.30;;;2.10;;
253;SDS011;590;48.772;8.846;2024-03-25T13:54:02;2.00;;;1.90;;
253;SDS011;590;48.772;8.846;2024-03-25T13:56:28;3.53;;;2.17;;
253;SDS011;590;48.772;8.846;2024-03-25T13:58:54;2.47;;;2.27;;
253;SDS011;590;48.772;8.846;2024-03-25T14:01:20;2.67;;;2.47;;
253;SDS011;590;48.772;8.846;2024-03-25T14:03:48;2.60;;;2.50;;
253;SDS011;590;48.772;8.846;2024-03-25T14:06:14;2.30;;;2.10;;
253;SDS011;590;48.772;8.846;2024-03-25T14:08:40;3.00;;;2.70;;
253;SDS011;590;48.772;8.846;2024-03-25T14:11:06;2.17;;;1.93;;
253;SDS011;590;48.772;8.846;2024-03-25T14:13:33;2.20;;;1.90;;
253;SDS011;590;48.772;8.846;2024-03-25T14:15:59;2.20;;;1.80;;
253;SDS011;590;48.772;8.846;2024-03-25T14:18:26;2.03;;;1.97;;
253;SDS011;590;48.772;8.846;2024-03-25T14:20:54;2.13;;;1.73;;
253;SDS011;590;48.772;8.846;2024-03-25T14:23:20;1.57;;;1.47;;
253;SDS011;590;48.772;8.846;2024-03-25T14:25:46;1.70;;;1.60;;
253;SDS011;590;48.772;8.846;2024-03-25T14:28:12;1.60;;;1.20;;
253;SDS011;590;48.772;8.846;2024-03-25T14:30:38;2.90;;;1.50;;
253;SDS011;590;48.772;8.846;2024-03-25T14:33:05;4.37;;;2.57;;
253;SDS011;590;48.772;8.846;2024-03-25T14:35:31;1.30;;;1.17;;
253;SDS011;590;48.772;8.846;2024-03-25T14:37:58;2.17;;;1.70;;
253;SDS011;590;48.772;8.846;2024-03-25T14:40:24;1.77;;;1.70;;
253;SDS011;590;48.772;8.846;2024-03-25T14:42:51;1.97;;;1.87;;
253;SDS011;590;48.772;8.846;2024-03-25T14:45:17;1.73;;;1.70;;
253;SDS011;590;48.772;8.846;2024-03-25T14:47:44;2.57;;;2.37;;
253;SDS011;590;48.772;8.846;2024-03-25T14:50:10;2.33;;;1.83;;
253;SDS011;590;48.772;8.846;2024-03-25T14:52:36;2.00;;;1.90;;
253;SDS011;590;48.772;8.846;2024-03-25T14:55:04;2.73;;;2.53;;
253;SDS011;590;48.772;8.846;2024-03-25T14:57:31;3.70;;;2.60;;
253;SDS011;590;48.772;8.846;2024-03-25T15:00:00;2.43;;;2.23;;
253;SDS011;590;48.772;8.846;2024-03-25T15:02:26;4.37;;;2.50;;
253;SDS011;590;48.772;8.846;2024-03-25T15:04:52;1.70;;;1.60;;
253;SDS011;590;48.772;8.846;2024-03-25T15:07:18;2.30;;;2.10;;
253;SDS011;590;48.772;8.846;2024-03-25T15:09:45;2.57;;;2.37;;
253;SDS011;590;48.772;8.846;2024-03-25T15:12:12;2.13;;;1.97;;
253;SDS011;590;48.772;8.846;2024-03-25T15:14:38;2.13;;;1.97;;
253;SDS011;590;48.772;8.846;2024-03-25T15:17:05;2.70;;;2.17;;
253;SDS011;590;48.772;8.846;2024-03-25T15:19:31;2.37;;;2.10;;
253;SDS011;590;48.772;8.846;2024-03-25T15:25:45;2.27;;;2.07;;
253;SDS011;590;48.772;8.846;2024-03-25T15:28:13;1.80;;;1.70;;
253;SDS011;590;48.772;8.846;2024-03-25T15:30:39;2.43;;;2.17;;
253;SDS011;590;48.772;8.846;2024-03-25T15:33:05;2.40;;;2.20;;
253;SDS011;590;48.772;8.846;2024-03-25T15:35:31;2.30;;;2.13;;
253;SDS011;590;48.772;8.846;2024-03-25T15:37:57;2.23;;;1.83;;
253;SDS011;590;48.772;8.846;2024-03-25T15:40:26;2.03;;;1.70;;
253;SDS011;590;48.772;8.846;2024-03-25T15:42:52;2.50;;;2.30;;
253;SDS011;590;48.772;8.846;2024-03-25T15:45:19;1.90;;;1.80;;
253;SDS011;590;48.772;8.846;2024-03-25T15:47:45;1.90;;;1.80;;